Portada
METAR-TAF:

METAR-TAF

Aeropuertos :

Moroni, Comoras

Aeropuerto Internacional Príncipe Said Ibrahim

latitud: 11-32S, longitud: 043-16E, altitud: 29 m

Observación

El informe se hizo hace 7 horas y 50 minutos, a las 18:00 UTC
Viento 9 kt del este
Temperatura 25°C
Humedad 83%
Presión 1017 hPa
Visibilidad 10 km o más
Escasas nubes a una altura de 2100 ft

METAR: FMCH 271800Z 09009KT 9999 FEW021 25/22 Q1017 NOSIG

Hora: 04:50 (01:50 UTC)

Pronóstico

El informe se hizo hace 8 horas y 50 minutos, a las 17:00 UTC
Pronóstico válido del 27 a las 18 UTC al 28 a las 24 UTC
Viento 3 kt del este con ráfagas de 15 kt
Visibilidad 10 km o más
Escasas nubes a una altura de 2000 ft
Evolucionando progresivamente
del 28 a las 03 UTC al 28 a las 05 UTC
Viento 15 kt del este
Evolucionando progresivamente
del 28 a las 15 UTC al 28 a las 17 UTC
Viento 3 kt del este

TAF: FMCH 271700Z 2718/2824 09003G15KT 9999 FEW020 BECMG 2803/2805 10015KT BECMG 2815/2817 10003KT

Observaciones y pronósticos meteorológicos de más de 4000 aeropuertos (mensajes METAR y TAF).

Los puntos amarillos y rojos representan las estaciones disponibles.

Ponga el ratón en el punto deseado para ver el nombre de la estación.

Haga clic para ver las observaciones y los pronósticos meteorológicos.

Para cambiar el mapa : haga clic en los botones verdes con una cruz de color negro para hacer un zoom, en el botón verde con un guión para alejar o en las flechas verdes para mapas adyacentes.


METAR-TAF: